sensor_id;sensor_type;location;lat;lon;timestamp;pressure;altitude;pressure_sealevel;temperature;humidity
71465;BME280;59274;49.874;9.154;2022-12-20T00:00:45;100981.91;;;1.84;100.00
71465;BME280;59274;49.874;9.154;2022-12-20T00:03:11;100982.91;;;1.88;100.00
71465;BME280;59274;49.874;9.154;2022-12-20T00:05:39;100976.56;;;1.84;100.00
71465;BME280;59274;49.874;9.154;2022-12-20T00:08:05;100966.94;;;1.83;100.00
71465;BME280;59274;49.874;9.154;2022-12-20T00:10:38;100967.09;;;1.73;100.00
71465;BME280;59274;49.874;9.154;2022-12-20T00:13:04;100956.19;;;1.56;100.00
71465;BME280;59274;49.874;9.154;2022-12-20T00:15:30;100948.81;;;1.48;100.00
71465;BME280;59274;49.874;9.154;2022-12-20T00:17:56;100955.44;;;1.50;100.00
71465;BME280;59274;49.874;9.154;2022-12-20T00:20:22;100950.41;;;1.49;100.00
71465;BME280;59274;49.874;9.154;2022-12-20T00:22:48;100940.59;;;1.58;100.00
71465;BME280;59274;49.874;9.154;2022-12-20T00:25:13;100948.25;;;1.65;100.00
71465;BME280;59274;49.874;9.154;2022-12-20T00:27:38;100947.97;;;1.66;100.00
71465;BME280;59274;49.874;9.154;2022-12-20T00:30:05;100940.53;;;1.63;100.00
71465;BME280;59274;49.874;9.154;2022-12-20T00:32:30;100946.97;;;1.62;100.00
71465;BME280;59274;49.874;9.154;2022-12-20T00:34:56;100930.25;;;1.70;100.00
71465;BME280;59274;49.874;9.154;2022-12-20T00:37:22;100937.09;;;1.76;100.00
71465;BME280;59274;49.874;9.154;2022-12-20T00:39:47;100929.84;;;1.77;100.00
71465;BME280;59274;49.874;9.154;2022-12-20T00:42:12;100920.69;;;1.78;100.00
71465;BME280;59274;49.874;9.154;2022-12-20T00:44:38;100919.81;;;1.82;100.00
71465;BME280;59274;49.874;9.154;2022-12-20T00:47:03;100918.72;;;1.70;100.00
71465;BME280;59274;49.874;9.154;2022-12-20T00:49:29;100923.75;;;1.71;100.00
71465;BME280;59274;49.874;9.154;2022-12-20T00:51:54;100924.56;;;1.72;100.00
71465;BME280;59274;49.874;9.154;2022-12-20T00:54:19;100913.38;;;1.70;100.00
71465;BME280;59274;49.874;9.154;2022-12-20T00:56:45;100918.81;;;1.78;100.00
71465;BME280;59274;49.874;9.154;2022-12-20T00:59:13;100908.72;;;1.75;100.00
71465;BME280;59274;49.874;9.154;2022-12-20T01:01:38;100920.41;;;1.79;100.00
71465;BME280;59274;49.874;9.154;2022-12-20T01:04:04;100921.09;;;1.85;100.00
71465;BME280;59274;49.874;9.154;2022-12-20T01:06:30;100924.09;;;1.83;100.00
71465;BME280;59274;49.874;9.154;2022-12-20T01:08:56;100924.50;;;1.90;100.00
71465;BME280;59274;49.874;9.154;2022-12-20T01:11:27;100912.88;;;1.95;100.00
71465;BME280;59274;49.874;9.154;2022-12-20T01:13:56;100917.66;;;1.98;100.00
71465;BME280;59274;49.874;9.154;2022-12-20T01:16:25;100924.38;;;1.95;100.00
71465;BME280;59274;49.874;9.154;2022-12-20T01:18:51;100926.28;;;1.81;100.00
71465;BME280;59274;49.874;9.154;2022-12-20T01:21:18;100927.25;;;1.85;99.94
71465;BME280;59274;49.874;9.154;2022-12-20T01:23:45;100924.56;;;1.85;100.00
71465;BME280;59274;49.874;9.154;2022-12-20T01:26:13;100926.28;;;1.81;99.58
71465;BME280;59274;49.874;9.154;2022-12-20T01:28:40;100925.88;;;1.74;100.00
71465;BME280;59274;49.874;9.154;2022-12-20T01:31:07;100915.03;;;1.66;100.00
71465;BME280;59274;49.874;9.154;2022-12-20T01:33:34;100923.16;;;1.61;100.00
71465;BME280;59274;49.874;9.154;2022-12-20T01:36:04;100911.84;;;1.64;100.00
71465;BME280;59274;49.874;9.154;2022-12-20T01:38:30;100926.53;;;1.52;100.00
71465;BME280;59274;49.874;9.154;2022-12-20T01:40:56;100916.78;;;1.43;100.00
71465;BME280;59274;49.874;9.154;2022-12-20T01:43:22;100917.88;;;1.42;100.00
71465;BME280;59274;49.874;9.154;2022-12-20T01:45:49;100908.19;;;1.46;100.00
71465;BME280;59274;49.874;9.154;2022-12-20T01:48:21;100906.59;;;1.45;100.00
71465;BME280;59274;49.874;9.154;2022-12-20T01:50:49;100899.72;;;1.39;100.00
71465;BME280;59274;49.874;9.154;2022-12-20T01:53:17;100904.78;;;1.40;100.00
71465;BME280;59274;49.874;9.154;2022-12-20T01:55:46;100905.38;;;1.37;100.00
71465;BME280;59274;49.874;9.154;2022-12-20T01:58:13;100900.06;;;1.65;100.00
71465;BME280;59274;49.874;9.154;2022-12-20T02:00:41;100898.88;;;1.57;100.00
71465;BME280;59274;49.874;9.154;2022-12-20T02:03:11;100896.59;;;1.64;100.00
71465;BME280;59274;49.874;9.154;2022-12-20T02:05:42;100890.94;;;1.66;100.00
71465;BME280;59274;49.874;9.154;2022-12-20T02:08:10;100893.63;;;1.66;100.00
71465;BME280;59274;49.874;9.154;2022-12-20T02:11:05;100897.09;;;1.66;100.00
71465;BME280;59274;49.874;9.154;2022-12-20T02:16:24;100886.38;;;1.66;100.00
71465;BME280;59274;49.874;9.154;2022-12-20T02:19:01;100885.31;;;1.81;100.00
71465;BME280;59274;49.874;9.154;2022-12-20T02:21:42;100886.09;;;1.95;100.00
71465;BME280;59274;49.874;9.154;2022-12-20T02:34:25;100874.06;;;2.06;99.24
71465;BME280;59274;49.874;9.154;2022-12-20T02:36:51;100854.75;;;1.95;99.48
71465;BME280;59274;49.874;9.154;2022-12-20T02:39:17;100862.69;;;2.01;99.94
71465;BME280;59274;49.874;9.154;2022-12-20T02:41:46;100868.16;;;1.95;100.00
71465;BME280;59274;49.874;9.154;2022-12-20T02:44:15;100864.88;;;2.12;99.57
71465;BME280;59274;49.874;9.154;2022-12-20T02:47:05;100858.00;;;2.20;99.54
71465;BME280;59274;49.874;9.154;2022-12-20T02:49:37;100848.59;;;2.09;99.62
71465;BME280;59274;49.874;9.154;2022-12-20T02:52:06;100846.31;;;2.02;99.39
71465;BME280;59274;49.874;9.154;2022-12-20T02:54:33;100842.97;;;1.96;99.27
71465;BME280;59274;49.874;9.154;2022-12-20T02:59:43;100822.72;;;1.90;99.86
71465;BME280;59274;49.874;9.154;2022-12-20T03:02:13;100817.88;;;1.79;100.00
71465;BME280;59274;49.874;9.154;2022-12-20T03:04:39;100814.31;;;1.83;100.00
71465;BME280;59274;49.874;9.154;2022-12-20T03:07:12;100817.16;;;1.87;100.00
71465;BME280;59274;49.874;9.154;2022-12-20T03:09:40;100811.31;;;1.99;100.00
71465;BME280;59274;49.874;9.154;2022-12-20T03:12:07;100806.44;;;2.01;100.00
71465;BME280;59274;49.874;9.154;2022-12-20T03:14:33;100806.94;;;2.03;100.00
71465;BME280;59274;49.874;9.154;2022-12-20T03:16:59;100811.16;;;2.17;100.00
71465;BME280;59274;49.874;9.154;2022-12-20T03:19:24;100805.31;;;2.15;100.00
71465;BME280;59274;49.874;9.154;2022-12-20T03:21:50;100815.22;;;2.15;100.00
71465;BME280;59274;49.874;9.154;2022-12-20T03:24:16;100809.19;;;2.09;100.00
71465;BME280;59274;49.874;9.154;2022-12-20T03:26:42;100812.47;;;2.06;100.00
71465;BME280;59274;49.874;9.154;2022-12-20T03:29:08;100807.44;;;2.05;100.00
71465;BME280;59274;49.874;9.154;2022-12-20T03:31:34;100806.63;;;2.04;100.00
71465;BME280;59274;49.874;9.154;2022-12-20T03:34:00;100803.28;;;1.99;100.00
71465;BME280;59274;49.874;9.154;2022-12-20T03:36:25;100801.00;;;2.06;100.00
71465;BME280;59274;49.874;9.154;2022-12-20T03:38:51;100800.94;;;2.19;100.00
71465;BME280;59274;49.874;9.154;2022-12-20T03:41:18;100795.66;;;2.28;100.00
71465;BME280;59274;49.874;9.154;2022-12-20T03:43:45;100799.25;;;2.23;100.00
71465;BME280;59274;49.874;9.154;2022-12-20T03:46:11;100790.00;;;2.29;100.00
71465;BME280;59274;49.874;9.154;2022-12-20T03:48:37;100790.19;;;2.33;100.00
71465;BME280;59274;49.874;9.154;2022-12-20T03:51:02;100783.00;;;2.42;100.00
71465;BME280;59274;49.874;9.154;2022-12-20T03:53:28;100785.50;;;2.39;100.00
71465;BME280;59274;49.874;9.154;2022-12-20T03:55:53;100794.22;;;2.44;100.00
71465;BME280;59274;49.874;9.154;2022-12-20T03:58:19;100790.84;;;2.39;100.00
71465;BME280;59274;49.874;9.154;2022-12-20T04:00:44;100798.34;;;2.50;100.00
71465;BME280;59274;49.874;9.154;2022-12-20T04:03:10;100794.69;;;2.46;99.52
71465;BME280;59274;49.874;9.154;2022-12-20T04:05:35;100788.47;;;2.37;99.60
71465;BME280;59274;49.874;9.154;2022-12-20T04:08:01;100792.38;;;2.31;99.95
71465;BME280;59274;49.874;9.154;2022-12-20T04:10:26;100792.41;;;2.17;100.00
71465;BME280;59274;49.874;9.154;2022-12-20T04:12:51;100798.44;;;2.23;100.00
71465;BME280;59274;49.874;9.154;2022-12-20T04:15:17;100798.06;;;2.16;100.00
71465;BME280;59274;49.874;9.154;2022-12-20T04:17:42;100783.38;;;2.13;100.00
71465;BME280;59274;49.874;9.154;2022-12-20T04:20:15;100776.63;;;2.16;100.00
71465;BME280;59274;49.874;9.154;2022-12-20T04:22:45;100780.19;;;2.25;100.00
71465;BME280;59274;49.874;9.154;2022-12-20T04:25:11;100766.00;;;2.24;100.00
71465;BME280;59274;49.874;9.154;2022-12-20T04:27:37;100771.44;;;2.33;100.00
71465;BME280;59274;49.874;9.154;2022-12-20T04:30:03;100774.66;;;2.44;100.00
71465;BME280;59274;49.874;9.154;2022-12-20T04:32:28;100778.50;;;2.51;100.00
71465;BME280;59274;49.874;9.154;2022-12-20T04:34:54;100778.06;;;2.58;100.00
71465;BME280;59274;49.874;9.154;2022-12-20T04:37:19;100769.72;;;2.59;100.00
71465;BME280;59274;49.874;9.154;2022-12-20T04:39:45;100770.53;;;2.60;100.00
71465;BME280;59274;49.874;9.154;2022-12-20T04:42:10;100769.84;;;2.54;100.00
71465;BME280;59274;49.874;9.154;2022-12-20T04:44:35;100773.75;;;2.48;100.00
71465;BME280;59274;49.874;9.154;2022-12-20T04:47:01;100766.66;;;2.30;100.00
71465;BME280;59274;49.874;9.154;2022-12-20T04:49:27;100771.84;;;2.26;100.00
71465;BME280;59274;49.874;9.154;2022-12-20T04:51:52;100767.75;;;2.29;100.00
71465;BME280;59274;49.874;9.154;2022-12-20T04:54:18;100762.91;;;2.31;100.00
71465;BME280;59274;49.874;9.154;2022-12-20T04:56:43;100769.41;;;2.39;100.00
71465;BME280;59274;49.874;9.154;2022-12-20T04:59:09;100751.94;;;2.41;100.00
71465;BME280;59274;49.874;9.154;2022-12-20T05:01:35;100747.47;;;2.36;100.00
71465;BME280;59274;49.874;9.154;2022-12-20T05:04:01;100741.09;;;2.46;100.00
71465;BME280;59274;49.874;9.154;2022-12-20T05:06:27;100725.91;;;2.42;100.00
71465;BME280;59274;49.874;9.154;2022-12-20T05:08:52;100736.34;;;2.43;100.00
71465;BME280;59274;49.874;9.154;2022-12-20T05:11:19;100741.31;;;2.58;100.00
71465;BME280;59274;49.874;9.154;2022-12-20T05:13:45;100738.59;;;2.50;100.00
71465;BME280;59274;49.874;9.154;2022-12-20T05:16:10;100755.47;;;2.50;100.00
71465;BME280;59274;49.874;9.154;2022-12-20T05:18:36;100755.38;;;2.64;100.00
71465;BME280;59274;49.874;9.154;2022-12-20T05:21:02;100758.88;;;2.64;100.00
71465;BME280;59274;49.874;9.154;2022-12-20T05:23:48;100749.44;;;2.67;100.00
71465;BME280;59274;49.874;9.154;2022-12-20T05:26:35;100759.34;;;2.66;100.00
71465;BME280;59274;49.874;9.154;2022-12-20T05:29:02;100763.13;;;2.65;100.00
71465;BME280;59274;49.874;9.154;2022-12-20T05:31:27;100760.94;;;2.67;100.00
71465;BME280;59274;49.874;9.154;2022-12-20T05:33:53;100761.91;;;2.71;100.00
71465;BME280;59274;49.874;9.154;2022-12-20T05:36:19;100754.34;;;2.73;100.00
71465;BME280;59274;49.874;9.154;2022-12-20T05:38:44;100758.28;;;2.67;100.00
71465;BME280;59274;49.874;9.154;2022-12-20T05:41:10;100763.50;;;2.72;100.00
71465;BME280;59274;49.874;9.154;2022-12-20T05:43:36;100761.53;;;2.87;100.00
71465;BME280;59274;49.874;9.154;2022-12-20T05:46:01;100758.34;;;2.85;100.00
71465;BME280;59274;49.874;9.154;2022-12-20T05:48:26;100766.28;;;2.90;100.00
71465;BME280;59274;49.874;9.154;2022-12-20T05:50:52;100766.66;;;2.74;100.00
71465;BME280;59274;49.874;9.154;2022-12-20T05:53:18;100763.78;;;2.71;100.00
71465;BME280;59274;49.874;9.154;2022-12-20T05:55:46;100759.72;;;2.73;100.00
71465;BME280;59274;49.874;9.154;2022-12-20T05:58:12;100750.53;;;2.66;100.00
71465;BME280;59274;49.874;9.154;2022-12-20T06:00:39;100751.91;;;2.63;100.00
71465;BME280;59274;49.874;9.154;2022-12-20T06:03:05;100752.13;;;2.67;100.00
71465;BME280;59274;49.874;9.154;2022-12-20T06:05:31;100756.69;;;2.66;100.00
71465;BME280;59274;49.874;9.154;2022-12-20T06:07:56;100752.59;;;2.69;100.00
71465;BME280;59274;49.874;9.154;2022-12-20T06:10:22;100754.34;;;2.73;100.00
71465;BME280;59274;49.874;9.154;2022-12-20T06:12:48;100744.13;;;2.75;100.00
71465;BME280;59274;49.874;9.154;2022-12-20T06:15:14;100748.41;;;2.77;100.00
71465;BME280;59274;49.874;9.154;2022-12-20T06:17:39;100744.78;;;2.81;100.00
71465;BME280;59274;49.874;9.154;2022-12-20T06:20:06;100737.19;;;2.74;100.00
71465;BME280;59274;49.874;9.154;2022-12-20T06:22:32;100733.19;;;2.72;100.00
71465;BME280;59274;49.874;9.154;2022-12-20T06:24:58;100735.09;;;2.71;100.00
71465;BME280;59274;49.874;9.154;2022-12-20T06:27:23;100736.97;;;2.71;100.00
71465;BME280;59274;49.874;9.154;2022-12-20T06:29:48;100743.88;;;2.63;100.00
71465;BME280;59274;49.874;9.154;2022-12-20T06:32:19;100748.03;;;2.69;100.00
71465;BME280;59274;49.874;9.154;2022-12-20T06:34:45;100740.59;;;2.66;100.00
71465;BME280;59274;49.874;9.154;2022-12-20T06:37:11;100742.84;;;2.73;100.00
71465;BME280;59274;49.874;9.154;2022-12-20T06:39:36;100730.28;;;2.82;100.00
71465;BME280;59274;49.874;9.154;2022-12-20T06:42:02;100728.84;;;2.85;100.00
71465;BME280;59274;49.874;9.154;2022-12-20T06:44:27;100732.03;;;2.87;100.00
71465;BME280;59274;49.874;9.154;2022-12-20T06:46:52;100728.25;;;2.88;100.00
71465;BME280;59274;49.874;9.154;2022-12-20T06:49:18;100732.97;;;2.82;100.00
71465;BME280;59274;49.874;9.154;2022-12-20T06:51:43;100724.38;;;2.71;100.00
71465;BME280;59274;49.874;9.154;2022-12-20T06:54:09;100719.69;;;2.77;100.00
71465;BME280;59274;49.874;9.154;2022-12-20T06:56:34;100717.00;;;2.77;100.00
71465;BME280;59274;49.874;9.154;2022-12-20T06:58:59;100721.09;;;2.74;100.00
71465;BME280;59274;49.874;9.154;2022-12-20T07:01:25;100713.63;;;2.71;100.00
71465;BME280;59274;49.874;9.154;2022-12-20T07:03:50;100716.47;;;2.66;100.00
71465;BME280;59274;49.874;9.154;2022-12-20T07:06:16;100710.00;;;2.67;100.00
71465;BME280;59274;49.874;9.154;2022-12-20T07:08:44;100708.72;;;2.65;100.00
71465;BME280;59274;49.874;9.154;2022-12-20T07:11:09;100714.00;;;2.79;100.00
71465;BME280;59274;49.874;9.154;2022-12-20T07:13:36;100702.91;;;2.71;100.00
71465;BME280;59274;49.874;9.154;2022-12-20T07:16:02;100719.72;;;2.86;100.00
71465;BME280;59274;49.874;9.154;2022-12-20T07:18:28;100722.72;;;2.84;100.00
71465;BME280;59274;49.874;9.154;2022-12-20T07:20:58;100725.72;;;2.83;100.00
71465;BME280;59274;49.874;9.154;2022-12-20T07:23:24;100717.97;;;2.81;100.00
71465;BME280;59274;49.874;9.154;2022-12-20T07:25:57;100714.47;;;2.81;100.00
71465;BME280;59274;49.874;9.154;2022-12-20T07:28:24;100729.97;;;2.84;100.00
71465;BME280;59274;49.874;9.154;2022-12-20T07:30:50;100739.56;;;2.76;100.00
71465;BME280;59274;49.874;9.154;2022-12-20T07:33:16;100723.94;;;2.78;100.00
71465;BME280;59274;49.874;9.154;2022-12-20T07:35:41;100720.44;;;2.78;100.00
71465;BME280;59274;49.874;9.154;2022-12-20T07:38:10;100733.09;;;2.77;100.00
71465;BME280;59274;49.874;9.154;2022-12-20T07:40:39;100732.91;;;2.73;100.00
71465;BME280;59274;49.874;9.154;2022-12-20T07:43:05;100734.50;;;2.74;100.00
71465;BME280;59274;49.874;9.154;2022-12-20T07:45:30;100735.28;;;2.75;100.00
71465;BME280;59274;49.874;9.154;2022-12-20T07:47:55;100737.34;;;2.78;100.00
71465;BME280;59274;49.874;9.154;2022-12-20T07:50:22;100730.78;;;2.84;100.00
71465;BME280;59274;49.874;9.154;2022-12-20T07:52:48;100735.69;;;2.91;100.00
71465;BME280;59274;49.874;9.154;2022-12-20T07:55:14;100717.88;;;2.95;100.00
71465;BME280;59274;49.874;9.154;2022-12-20T07:57:52;100708.53;;;2.92;99.79
71465;BME280;59274;49.874;9.154;2022-12-20T08:00:19;100716.91;;;2.91;100.00
71465;BME280;59274;49.874;9.154;2022-12-20T08:02:52;100700.63;;;2.87;100.00
71465;BME280;59274;49.874;9.154;2022-12-20T08:05:19;100713.59;;;2.94;100.00
71465;BME280;59274;49.874;9.154;2022-12-20T08:07:46;100716.78;;;2.96;100.00
71465;BME280;59274;49.874;9.154;2022-12-20T08:10:13;100713.09;;;2.92;100.00
71465;BME280;59274;49.874;9.154;2022-12-20T08:12:40;100714.53;;;2.89;100.00
71465;BME280;59274;49.874;9.154;2022-12-20T08:15:08;100712.59;;;2.81;100.00
71465;BME280;59274;49.874;9.154;2022-12-20T08:17:33;100718.47;;;2.92;100.00
71465;BME280;59274;49.874;9.154;2022-12-20T08:19:59;100707.44;;;2.93;100.00
71465;BME280;59274;49.874;9.154;2022-12-20T08:22:25;100713.59;;;2.94;100.00
71465;BME280;59274;49.874;9.154;2022-12-20T08:24:50;100710.78;;;2.99;100.00
71465;BME280;59274;49.874;9.154;2022-12-20T08:27:16;100704.31;;;3.00;100.00
71465;BME280;59274;49.874;9.154;2022-12-20T08:29:42;100687.31;;;3.13;100.00
71465;BME280;59274;49.874;9.154;2022-12-20T08:32:07;100680.50;;;3.07;100.00
71465;BME280;59274;49.874;9.154;2022-12-20T08:34:32;100680.50;;;3.07;100.00
71465;BME280;59274;49.874;9.154;2022-12-20T08:36:59;100680.66;;;3.02;100.00
71465;BME280;59274;49.874;9.154;2022-12-20T08:39:24;100683.94;;;2.99;100.00
71465;BME280;59274;49.874;9.154;2022-12-20T08:42:11;100684.28;;;2.97;100.00
71465;BME280;59274;49.874;9.154;2022-12-20T08:44:35;100679.41;;;3.08;100.00
71465;BME280;59274;49.874;9.154;2022-12-20T08:47:01;100682.25;;;3.03;100.00
71465;BME280;59274;49.874;9.154;2022-12-20T08:49:26;100678.91;;;3.06;100.00
71465;BME280;59274;49.874;9.154;2022-12-20T08:51:52;100679.75;;;3.15;100.00
71465;BME280;59274;49.874;9.154;2022-12-20T08:54:17;100684.34;;;3.23;100.00
71465;BME280;59274;49.874;9.154;2022-12-20T08:56:43;100680.47;;;3.46;100.00
71465;BME280;59274;49.874;9.154;2022-12-20T08:59:08;100677.00;;;3.54;99.87
71465;BME280;59274;49.874;9.154;2022-12-20T09:01:34;100669.91;;;3.67;99.36
71465;BME280;59274;49.874;9.154;2022-12-20T09:03:59;100665.00;;;3.61;99.07
71465;BME280;59274;49.874;9.154;2022-12-20T09:06:25;100680.81;;;3.62;98.96
71465;BME280;59274;49.874;9.154;2022-12-20T09:08:51;100671.94;;;3.53;98.45
71465;BME280;59274;49.874;9.154;2022-12-20T09:11:22;100674.94;;;3.51;99.29
71465;BME280;59274;49.874;9.154;2022-12-20T09:13:49;100666.09;;;3.51;98.84
71465;BME280;59274;49.874;9.154;2022-12-20T09:16:18;100667.81;;;3.55;99.02
71465;BME280;59274;49.874;9.154;2022-12-20T09:18:47;100659.31;;;3.53;98.73
71465;BME280;59274;49.874;9.154;2022-12-20T09:21:13;100656.16;;;3.60;98.50
71465;BME280;59274;49.874;9.154;2022-12-20T09:23:38;100657.88;;;3.56;98.79
71465;BME280;59274;49.874;9.154;2022-12-20T09:26:12;100660.56;;;3.65;98.91
71465;BME280;59274;49.874;9.154;2022-12-20T09:28:38;100659.00;;;3.64;99.23
71465;BME280;59274;49.874;9.154;2022-12-20T09:31:08;100665.47;;;3.63;98.94
71465;BME280;59274;49.874;9.154;2022-12-20T09:33:35;100649.03;;;3.64;98.69
71465;BME280;59274;49.874;9.154;2022-12-20T09:36:01;100651.13;;;3.76;97.75
71465;BME280;59274;49.874;9.154;2022-12-20T09:38:27;100645.88;;;3.79;97.30
71465;BME280;59274;49.874;9.154;2022-12-20T09:40:55;100640.19;;;3.89;96.92
71465;BME280;59274;49.874;9.154;2022-12-20T09:43:22;100638.13;;;3.95;96.68
71465;BME280;59274;49.874;9.154;2022-12-20T09:45:51;100652.38;;;4.04;96.73
71465;BME280;59274;49.874;9.154;2022-12-20T09:48:24;100637.97;;;4.00;96.70
71465;BME280;59274;49.874;9.154;2022-12-20T09:55:58;100659.47;;;3.91;96.28
71465;BME280;59274;49.874;9.154;2022-12-20T09:58:59;100652.84;;;3.98;95.82
71465;BME280;59274;49.874;9.154;2022-12-20T10:01:27;100656.16;;;4.03;95.15
71465;BME280;59274;49.874;9.154;2022-12-20T10:03:55;100653.91;;;4.05;95.10
71465;BME280;59274;49.874;9.154;2022-12-20T10:14:39;100637.44;;;4.79;93.55
71465;BME280;59274;49.874;9.154;2022-12-20T10:20:17;100628.63;;;4.99;92.60
71465;BME280;59274;49.874;9.154;2022-12-20T10:27:46;100626.34;;;4.89;90.91
71465;BME280;59274;49.874;9.154;2022-12-20T10:30:21;100626.13;;;4.94;91.49
71465;BME280;59274;49.874;9.154;2022-12-20T10:32:52;100614.53;;;5.02;90.99
71465;BME280;59274;49.874;9.154;2022-12-20T10:35:38;100619.41;;;5.09;91.59
71465;BME280;59274;49.874;9.154;2022-12-20T10:38:09;100614.88;;;5.01;91.63
71465;BME280;59274;49.874;9.154;2022-12-20T10:40:48;100615.28;;;4.82;92.03
71465;BME280;59274;49.874;9.154;2022-12-20T10:43:27;100604.38;;;4.79;92.60
71465;BME280;59274;49.874;9.154;2022-12-20T10:46:07;100602.22;;;4.63;92.76
71465;BME280;59274;49.874;9.154;2022-12-20T10:48:35;100597.63;;;4.64;92.77
71465;BME280;59274;49.874;9.154;2022-12-20T10:53:57;100573.22;;;4.40;93.50
71465;BME280;59274;49.874;9.154;2022-12-20T10:56:31;100574.19;;;4.26;94.41
71465;BME280;59274;49.874;9.154;2022-12-20T11:01:43;100573.44;;;4.17;94.91
71465;BME280;59274;49.874;9.154;2022-12-20T11:04:26;100571.38;;;4.14;95.35
71465;BME280;59274;49.874;9.154;2022-12-20T11:06:52;100570.09;;;4.20;95.25
71465;BME280;59274;49.874;9.154;2022-12-20T11:14:25;100571.09;;;4.07;95.26
71465;BME280;59274;49.874;9.154;2022-12-20T11:16:52;100575.69;;;4.07;95.03
71465;BME280;59274;49.874;9.154;2022-12-20T11:24:35;100560.75;;;4.26;94.80
71465;BME280;59274;49.874;9.154;2022-12-20T11:27:15;100565.97;;;4.31;94.66
71465;BME280;59274;49.874;9.154;2022-12-20T11:30:03;100550.00;;;4.26;94.62
71465;BME280;59274;49.874;9.154;2022-12-20T11:35:17;100540.28;;;4.43;95.28
71465;BME280;59274;49.874;9.154;2022-12-20T11:38:24;100532.69;;;4.45;95.00
71465;BME280;59274;49.874;9.154;2022-12-20T11:44:57;100529.34;;;4.48;94.18
71465;BME280;59274;49.874;9.154;2022-12-20T11:49:36;100518.03;;;4.63;94.38
71465;BME280;59274;49.874;9.154;2022-12-20T11:52:45;100510.41;;;4.73;93.64
71465;BME280;59274;49.874;9.154;2022-12-20T12:00:22;100489.72;;;4.65;93.06
71465;BME280;59274;49.874;9.154;2022-12-20T12:03:00;100491.03;;;4.59;93.34
71465;BME280;59274;49.874;9.154;2022-12-20T12:05:38;100480.59;;;4.58;93.65
71465;BME280;59274;49.874;9.154;2022-12-20T12:08:10;100480.63;;;4.49;94.18
71465;BME280;59274;49.874;9.154;2022-12-20T12:10:44;100494.13;;;4.41;94.73
71465;BME280;59274;49.874;9.154;2022-12-20T12:13:16;100491.78;;;4.39;95.11
71465;BME280;59274;49.874;9.154;2022-12-20T12:18:14;100491.81;;;4.30;95.08
71465;BME280;59274;49.874;9.154;2022-12-20T12:23:29;100479.19;;;4.22;95.71
71465;BME280;59274;49.874;9.154;2022-12-20T12:26:02;100484.53;;;4.31;95.68
71465;BME280;59274;49.874;9.154;2022-12-20T12:28:29;100475.81;;;4.34;95.29
71465;BME280;59274;49.874;9.154;2022-12-20T12:31:04;100467.63;;;4.30;95.35
71465;BME280;59274;49.874;9.154;2022-12-20T12:33:36;100459.03;;;4.37;95.30
71465;BME280;59274;49.874;9.154;2022-12-20T12:46:45;100448.50;;;4.53;95.01
71465;BME280;59274;49.874;9.154;2022-12-20T12:49:20;100449.63;;;4.72;94.56
71465;BME280;59274;49.874;9.154;2022-12-20T12:51:53;100449.91;;;4.80;94.33
71465;BME280;59274;49.874;9.154;2022-12-20T12:54:36;100452.72;;;4.83;94.42
71465;BME280;59274;49.874;9.154;2022-12-20T13:12:56;100417.84;;;5.07;93.66
71465;BME280;59274;49.874;9.154;2022-12-20T13:17:52;100411.75;;;4.98;93.17
71465;BME280;59274;49.874;9.154;2022-12-20T13:20:24;100404.94;;;5.01;92.96
71465;BME280;59274;49.874;9.154;2022-12-20T13:33:46;100397.66;;;5.01;92.40
71465;BME280;59274;49.874;9.154;2022-12-20T13:38:52;100407.97;;;4.79;92.99
71465;BME280;59274;49.874;9.154;2022-12-20T13:41:31;100400.44;;;4.72;93.97
71465;BME280;59274;49.874;9.154;2022-12-20T13:49:09;100408.09;;;5.03;93.73
71465;BME280;59274;49.874;9.154;2022-12-20T13:51:36;100418.72;;;4.99;93.30
71465;BME280;59274;49.874;9.154;2022-12-20T13:54:03;100414.25;;;5.03;93.04
71465;BME280;59274;49.874;9.154;2022-12-20T13:59:13;100405.75;;;5.13;92.61
71465;BME280;59274;49.874;9.154;2022-12-20T14:01:47;100395.25;;;5.21;92.33
71465;BME280;59274;49.874;9.154;2022-12-20T14:04:13;100396.53;;;5.35;92.51
71465;BME280;59274;49.874;9.154;2022-12-20T14:06:40;100379.63;;;5.47;91.80
71465;BME280;59274;49.874;9.154;2022-12-20T14:09:26;100374.66;;;5.49;91.61
71465;BME280;59274;49.874;9.154;2022-12-20T14:11:52;100385.41;;;5.37;91.50
71465;BME280;59274;49.874;9.154;2022-12-20T14:14:17;100382.41;;;5.38;91.27
71465;BME280;59274;49.874;9.154;2022-12-20T14:16:43;100403.03;;;5.34;91.68
71465;BME280;59274;49.874;9.154;2022-12-20T14:19:13;100410.53;;;5.29;91.62
71465;BME280;59274;49.874;9.154;2022-12-20T14:21:42;100393.59;;;5.28;91.78
71465;BME280;59274;49.874;9.154;2022-12-20T14:24:16;100401.31;;;5.18;91.99
71465;BME280;59274;49.874;9.154;2022-12-20T14:26:50;100410.50;;;5.17;92.08
71465;BME280;59274;49.874;9.154;2022-12-20T14:29:27;100410.03;;;5.15;92.18
71465;BME280;59274;49.874;9.154;2022-12-20T14:31:54;100391.00;;;4.99;92.65
71465;BME280;59274;49.874;9.154;2022-12-20T14:34:24;100409.41;;;4.97;92.82
71465;BME280;59274;49.874;9.154;2022-12-20T14:36:50;100397.75;;;5.05;92.88
71465;BME280;59274;49.874;9.154;2022-12-20T14:39:28;100396.47;;;4.90;92.92
71465;BME280;59274;49.874;9.154;2022-12-20T14:44:26;100383.00;;;4.90;93.09
71465;BME280;59274;49.874;9.154;2022-12-20T14:46:57;100389.19;;;4.91;93.05
71465;BME280;59274;49.874;9.154;2022-12-20T14:49:48;100378.56;;;4.94;93.12
71465;BME280;59274;49.874;9.154;2022-12-20T14:52:33;100386.06;;;4.89;93.35
71465;BME280;59274;49.874;9.154;2022-12-20T15:00:11;100378.84;;;4.81;93.68
71465;BME280;59274;49.874;9.154;2022-12-20T15:11:23;100357.06;;;4.73;93.95
71465;BME280;59274;49.874;9.154;2022-12-20T15:13:44;100356.81;;;4.66;94.34
71465;BME280;59274;49.874;9.154;2022-12-20T15:16:25;100363.16;;;4.62;95.35
71465;BME280;59274;49.874;9.154;2022-12-20T15:18:56;100341.25;;;4.51;95.72